Terminal Aerodrome Forecast
Issued by NWS

Current Version | Previous Version | Graphics & Text | Print | Product List | Glossary On
Versions: 1 2 3 4 5 6 7 8 9 10 11 12 13 14 15 16 17
000
FTUS41 KPBZ 282320
TAFMGW
TAF
KMGW 282320Z 0100/0124 17006KT 6SM -RA OVC090
     FM010200 20010G20KT P6SM -RA OVC015 WS020/25040KT
     FM011200 21013G22KT 5SM -RA VCTS OVC025CB
     FM012000 23015G25KT P6SM OVC035=

USA.gov is the U.S. government's official web portal to all federal, state and local government web resources and services.